PWSweather.com
Personal Weather Stations
Station Observations
MARRWS
Allansford VictoriaAU 3277

Allansford VictoriaAU 3277

Lat: -38.4003683814149, Lon: 142.569826841354

Elevation: 36

Station Type: Fine Offset X7062

http://home.vicnet.net.au/~marr/Weather/

Latest ConditionsUpdated 7:50:02 AM GMT+10:10 Wednesday, Nov 26, 2014
Currently Today's Max Today's Min Today's Average
Temperature 62.2°F16.8°C 62.2°F16.8°C 55.0°F12.8°C 56.9°F13.8°C
Dew Point 51.2°F10.7°C 51.8°F11.0°C 45.2°F7.3°C 48.7°F9.3°C
Winds 7.0 mph WSW11.3 kmh WSW 7.0 mph WSW11.3 kmh WSW - 3.9 mph 6.3 kmh
Wind Gusts 13.0 mph20.9 kmh 13.6 mph21.9 kmh - -
Humidity 67% 83% 63% 74%
Pressure 29.91 in1012.9 mb 29.91 in1012.9 mb 29.85 in1010.8 mb -
Hour Temp Dew Point Humidity Winds Wind Gusts Pressure Precip Precip Rate Daily Precip Total
07:50 AM 62.2°F16.8°C 51.2°F10.7°C 67% 7.0 mph WSW11.3 kmh WSW 13.0 mph20.9 kmh 29.91 in1012.9 mb 0.00 in0.0 mm 0.00 in/hr0.0 mm/hr 0.00 in0.0 mm
07:40 AM 62.2°F16.8°C 51.6°F10.9°C 68% 6.6 mph WSW10.6 kmh WSW 13.0 mph20.9 kmh 29.91 in1012.9 mb 0.00 in0.0 mm 0.00 in/hr0.0 mm/hr 0.00 in0.0 mm
07:30 AM 61.3°F16.3°C 51.1°F10.6°C 69% 6.2 mph W10.0 kmh W 12.1 mph19.5 kmh 29.91 in1012.9 mb 0.00 in0.0 mm 0.00 in/hr0.0 mm/hr 0.00 in0.0 mm
07:20 AM 61.2°F16.2°C 50.1°F10.1°C 67% 5.6 mph WSW9.0 kmh WSW 11.4 mph18.3 kmh 29.90 in1012.5 mb 0.00 in0.0 mm 0.00 in/hr0.0 mm/hr 0.00 in0.0 mm
07:10 AM 60.6°F15.9°C 50.4°F10.2°C 69% 5.1 mph WSW8.2 kmh WSW 11.4 mph18.3 kmh 29.90 in1012.5 mb 0.00 in0.0 mm 0.00 in/hr0.0 mm/hr 0.00 in0.0 mm
07:00 AM 60.3°F15.7°C 50.5°F10.3°C 70% 5.1 mph WSW8.2 kmh WSW 10.7 mph17.2 kmh 29.90 in1012.5 mb 0.00 in0.0 mm 0.00 in/hr0.0 mm/hr 0.00 in0.0 mm
06:50 AM 59.4°F15.2°C 51.8°F11.0°C 76% 3.2 mph WSW5.1 kmh WSW 7.6 mph12.2 kmh 29.89 in1012.2 mb 0.00 in0.0 mm 0.00 in/hr0.0 mm/hr 0.00 in0.0 mm
06:40 AM 58.6°F14.8°C 51.8°F11.0°C 78% 3.3 mph WNW5.3 kmh WNW 6.9 mph11.1 kmh 29.90 in1012.5 mb 0.00 in0.0 mm 0.00 in/hr0.0 mm/hr 0.00 in0.0 mm
06:30 AM 57.9°F14.4°C 51.5°F10.8°C 79% 3.4 mph W5.5 kmh W 6.0 mph9.7 kmh 29.90 in1012.5 mb 0.00 in0.0 mm 0.00 in/hr0.0 mm/hr 0.00 in0.0 mm
06:20 AM 57.4°F14.1°C 51.3°F10.7°C 80% 3.2 mph WNW5.1 kmh WNW 6.0 mph9.7 kmh 29.89 in1012.2 mb 0.00 in0.0 mm 0.00 in/hr0.0 mm/hr 0.00 in0.0 mm
06:10 AM 56.7°F13.7°C 51.2°F10.7°C 82% 4.3 mph NW6.9 kmh NW 7.6 mph12.2 kmh 29.89 in1012.2 mb 0.00 in0.0 mm 0.00 in/hr0.0 mm/hr 0.00 in0.0 mm
06:00 AM 55.9°F13.3°C 50.9°F10.5°C 83% 3.2 mph NW5.1 kmh NW 6.0 mph9.7 kmh 29.89 in1012.2 mb 0.00 in0.0 mm 0.00 in/hr0.0 mm/hr 0.00 in0.0 mm
05:50 AM 55.4°F13.0°C 50.3°F10.2°C 83% 3.3 mph NW5.3 kmh NW 6.0 mph9.7 kmh 29.89 in1012.2 mb 0.00 in0.0 mm 0.00 in/hr0.0 mm/hr 0.00 in0.0 mm
05:40 AM 55.4°F13.0°C 50.3°F10.2°C 83% 3.2 mph WNW5.1 kmh WNW 8.3 mph13.4 kmh 29.88 in1011.9 mb 0.00 in0.0 mm 0.00 in/hr0.0 mm/hr 0.00 in0.0 mm
05:30 AM 55.4°F13.0°C 50.0°F10.0°C 82% 3.2 mph NW5.1 kmh NW 8.3 mph13.4 kmh 29.88 in1011.9 mb 0.00 in0.0 mm 0.00 in/hr0.0 mm/hr 0.00 in0.0 mm
05:20 AM 55.4°F13.0°C 50.0°F10.0°C 82% 2.9 mph NW4.7 kmh NW 7.6 mph12.2 kmh 29.88 in1011.9 mb 0.00 in0.0 mm 0.00 in/hr0.0 mm/hr 0.00 in0.0 mm
05:10 AM 55.8°F13.2°C 49.7°F9.8°C 80% 2.9 mph NW4.7 kmh NW 5.4 mph8.7 kmh 29.88 in1011.9 mb 0.00 in0.0 mm 0.00 in/hr0.0 mm/hr 0.00 in0.0 mm
05:00 AM 56.5°F13.6°C 50.1°F10.1°C 79% 4.6 mph WNW7.4 kmh WNW 10.7 mph17.2 kmh 29.87 in1011.5 mb 0.00 in0.0 mm 0.00 in/hr0.0 mm/hr 0.00 in0.0 mm
04:50 AM 56.1°F13.4°C 50.7°F10.4°C 82% 3.3 mph WSW5.3 kmh WSW 9.2 mph14.8 kmh 29.86 in1011.2 mb 0.00 in0.0 mm 0.00 in/hr0.0 mm/hr 0.00 in0.0 mm
04:40 AM 55.4°F13.0°C 49.7°F9.8°C 81% 4.4 mph NW7.1 kmh NW 9.8 mph15.8 kmh 29.86 in1011.2 mb 0.00 in0.0 mm 0.00 in/hr0.0 mm/hr 0.00 in0.0 mm
04:30 AM 55.2°F12.9°C 49.2°F9.6°C 80% 2.5 mph W4.0 kmh W 5.4 mph8.7 kmh 29.86 in1011.2 mb 0.00 in0.0 mm 0.00 in/hr0.0 mm/hr 0.00 in0.0 mm
04:20 AM 55.2°F12.9°C 49.5°F9.7°C 81% 2.5 mph W4.0 kmh W 6.0 mph9.7 kmh 29.86 in1011.2 mb 0.00 in0.0 mm 0.00 in/hr0.0 mm/hr 0.00 in0.0 mm
04:10 AM 55.2°F12.9°C 49.5°F9.7°C 81% 3.6 mph NW5.8 kmh NW 7.6 mph12.2 kmh 29.86 in1011.2 mb 0.00 in0.0 mm 0.00 in/hr0.0 mm/hr 0.00 in0.0 mm
04:00 AM 55.4°F13.0°C 49.3°F9.6°C 80% 3.1 mph NW5.0 kmh NW 6.0 mph9.7 kmh 29.86 in1011.2 mb 0.00 in0.0 mm 0.00 in/hr0.0 mm/hr 0.00 in0.0 mm
03:50 AM 55.8°F13.2°C 49.0°F9.4°C 78% 2.5 mph WNW4.0 kmh WNW 5.4 mph8.7 kmh 29.86 in1011.2 mb 0.00 in0.0 mm 0.00 in/hr0.0 mm/hr 0.00 in0.0 mm
03:40 AM 55.9°F13.3°C 48.5°F9.2°C 76% 3.0 mph WNW4.8 kmh WNW 6.9 mph11.1 kmh 29.86 in1011.2 mb 0.00 in0.0 mm 0.00 in/hr0.0 mm/hr 0.00 in0.0 mm
03:30 AM 55.8°F13.2°C 48.0°F8.9°C 75% 3.1 mph WNW5.0 kmh WNW 7.6 mph12.2 kmh 29.86 in1011.2 mb 0.00 in0.0 mm 0.00 in/hr0.0 mm/hr 0.00 in0.0 mm
03:20 AM 55.4°F13.0°C 47.3°F8.5°C 74% 3.1 mph WNW5.0 kmh WNW 7.6 mph12.2 kmh 29.85 in1010.8 mb 0.00 in0.0 mm 0.00 in/hr0.0 mm/hr 0.00 in0.0 mm
03:10 AM 55.4°F13.0°C 47.3°F8.5°C 74% 2.8 mph NW4.5 kmh NW 7.6 mph12.2 kmh 29.85 in1010.8 mb 0.00 in0.0 mm 0.00 in/hr0.0 mm/hr 0.00 in0.0 mm
03:00 AM 55.0°F12.8°C 46.9°F8.3°C 74% 2.4 mph NW3.9 kmh NW 5.4 mph8.7 kmh 29.86 in1011.2 mb 0.00 in0.0 mm 0.00 in/hr0.0 mm/hr 0.00 in0.0 mm
02:50 AM 55.0°F12.8°C 46.9°F8.3°C 74% 2.5 mph NW4.0 kmh NW 5.4 mph8.7 kmh 29.86 in1011.2 mb 0.00 in0.0 mm 0.00 in/hr0.0 mm/hr 0.00 in0.0 mm
02:40 AM 55.4°F13.0°C 46.9°F8.3°C 73% 3.4 mph NW5.5 kmh NW 6.0 mph9.7 kmh 29.86 in1011.2 mb 0.00 in0.0 mm 0.00 in/hr0.0 mm/hr 0.00 in0.0 mm
02:30 AM 55.4°F13.0°C 46.9°F8.3°C 73% 3.5 mph NW5.6 kmh NW 6.9 mph11.1 kmh 29.86 in1011.2 mb 0.00 in0.0 mm 0.00 in/hr0.0 mm/hr 0.00 in0.0 mm
02:20 AM 55.4°F13.0°C 46.9°F8.3°C 73% 4.0 mph NW6.4 kmh NW 7.6 mph12.2 kmh 29.86 in1011.2 mb 0.00 in0.0 mm 0.00 in/hr0.0 mm/hr 0.00 in0.0 mm
02:10 AM 55.4°F13.0°C 46.9°F8.3°C 73% 4.0 mph NW6.4 kmh NW 7.6 mph12.2 kmh 29.86 in1011.2 mb 0.00 in0.0 mm 0.00 in/hr0.0 mm/hr 0.00 in0.0 mm
02:00 AM 55.4°F13.0°C 46.9°F8.3°C 73% 3.6 mph NNW5.8 kmh NNW 7.6 mph12.2 kmh 29.86 in1011.2 mb 0.00 in0.0 mm 0.00 in/hr0.0 mm/hr 0.00 in0.0 mm
01:50 AM 55.4°F13.0°C 46.9°F8.3°C 73% 2.4 mph NW3.9 kmh NW 5.4 mph8.7 kmh 29.86 in1011.2 mb 0.00 in0.0 mm 0.00 in/hr0.0 mm/hr 0.00 in0.0 mm
01:40 AM 55.4°F13.0°C 46.9°F8.3°C 73% 2.7 mph NW4.3 kmh NW 5.4 mph8.7 kmh 29.87 in1011.5 mb 0.00 in0.0 mm 0.00 in/hr0.0 mm/hr 0.00 in0.0 mm
01:30 AM 55.4°F13.0°C 46.5°F8.1°C 72% 3.5 mph NW5.6 kmh NW 6.9 mph11.1 kmh 29.87 in1011.5 mb 0.00 in0.0 mm 0.00 in/hr0.0 mm/hr 0.00 in0.0 mm
01:20 AM 55.9°F13.3°C 46.7°F8.2°C 71% 4.0 mph NW6.4 kmh NW 9.8 mph15.8 kmh 29.87 in1011.5 mb 0.00 in0.0 mm 0.00 in/hr0.0 mm/hr 0.00 in0.0 mm
01:10 AM 58.3°F14.6°C 47.4°F8.6°C 67% 4.5 mph WSW7.2 kmh WSW 9.8 mph15.8 kmh 29.87 in1011.5 mb 0.00 in0.0 mm 0.00 in/hr0.0 mm/hr 0.00 in0.0 mm
01:00 AM 58.3°F14.6°C 47.0°F8.3°C 66% 5.5 mph WSW8.9 kmh WSW 10.7 mph17.2 kmh 29.88 in1011.9 mb 0.00 in0.0 mm 0.00 in/hr0.0 mm/hr 0.00 in0.0 mm
12:50 AM 58.1°F14.5°C 46.8°F8.2°C 66% 5.6 mph WSW9.0 kmh WSW 11.4 mph18.3 kmh 29.88 in1011.9 mb 0.00 in0.0 mm 0.00 in/hr0.0 mm/hr 0.00 in0.0 mm
12:40 AM 57.9°F14.4°C 46.2°F7.9°C 65% 4.6 mph WSW7.4 kmh WSW 10.7 mph17.2 kmh 29.88 in1011.9 mb 0.00 in0.0 mm 0.00 in/hr0.0 mm/hr 0.00 in0.0 mm
12:30 AM 57.9°F14.4°C 46.2°F7.9°C 65% 5.9 mph WSW9.5 kmh WSW 12.1 mph19.5 kmh 29.88 in1011.9 mb 0.00 in0.0 mm 0.00 in/hr0.0 mm/hr 0.00 in0.0 mm
12:20 AM 57.7°F14.3°C 46.1°F7.8°C 65% 6.3 mph WSW10.1 kmh WSW 11.4 mph18.3 kmh 29.89 in1012.2 mb 0.00 in0.0 mm 0.00 in/hr0.0 mm/hr 0.00 in0.0 mm
12:10 AM 57.7°F14.3°C 46.1°F7.8°C 65% 4.8 mph W7.7 kmh W 9.8 mph15.8 kmh 29.89 in1012.2 mb 0.00 in0.0 mm 0.00 in/hr0.0 mm/hr 0.00 in0.0 mm
12:00 AM 57.7°F14.3°C 45.2°F7.3°C 63% 5.2 mph WSW8.4 kmh WSW 13.6 mph21.9 kmh 29.89 in1012.2 mb 0.00 in0.0 mm 0.00 in/hr0.0 mm/hr 0.00 in0.0 mm